Garnerville, New York
Current Conditions -  °F | °C
As of 7:56 AM on Friday 24 Oct 2014 (Local Time) from KHPN Reporting Station
Broken Clouds Broken Clouds  
Wind Chill: 45°   Ceiling: 3200
Heat Index: 49°   Visibility: 10mi
Dew Point: 44°   Wind: 8mph
Humidity: 83%   Direction: 340°NNW
Pressure: 29.8"   Gusts: NA
Location:  41.2°N, 73.99°W
Report Text: KHPN 241156Z 34007KT 10SM SCT022 BKN032 09/07 A2980 RMK AO2 DZE38 SLP092 P0000 60000 70005 T00940067 10100 20089 53011
Loading
Personal Weather Stations






























Interactive Weather Map
Tropical Storm Tracking
New forecast layout! Learn more

10-Day Weather Forecast

Advertisements
Track Severe Weather on mobile